الصفحة الرئيسية
METAR-TAF:

METAR-TAF

مطار :

مطار جوليوس نيريري

دار السلام, تنزانيا

دائرة عرض: 06-52S, خط طول: 039-12E, ارتفاع: 55 متر

مراقبة الطقس الحالي

تاريخ ووقت الإصدار 1ساعة و 39 دقيقة قبل الساعة 08:00UTC
ريح 10 عقدة من الجنوب/الجنوب الشرقي
درجة الحرارة 29°درجة مئوية
الرطوبة 55%
ضغط 1018 hPa
الرؤية 10 كم أو أكثر
غيوم مفككة على ارتفاع 3300 قدم

METAR: HTDA 120800Z 15010KT 9999 BKN033 29/19 Q1018 NOSIG

زمن: 12:39 (09:39 UTC)

توقعات

تاريخ ووقت الإصدار 4ساعات و 39 دقيقة قبل الساعة 05:00UTC
التوقعات صالحة من12 الساعة 06 UTC إلى 13 الساعة 12 UTC
ريح 10 عقدة من الجنوب/الجنوب الشرقي
الرؤية 10 كم أو أكثر
غيوم مفككة على ارتفاع 2400 قدم
أصبح
من 12 الساعة 13 UTC إلى 12 الساعة 16 UTC
غيوم متفرقة على ارتفاع 1900 قدم
أصبح
من 12 الساعة 21 UTC إلى 12 الساعة 23 UTC
ريح عقدة من الشمال

TAF: HTDA 120500Z 1206/1312 16010KT 9999 BKN024 BECMG 1213/1216 SCT019 BECMG 1221/1223 00000KT

أرصاد الطقس والتوقعات من أكثر من 4000 مطار (تقارير الطقس للمطار METAR والتنبؤ بالطقس بالمطارTAF).

المحطات المتاحة هي النقط الصفراء والحمراء على الخريطة.

حرك المؤشر فوق النقطة لمعرفة اسم المحطة.

ثم انقر لمعرفة أرصاد وتوقعات الطقس.

لتغيير الخارطة: اضغط على الأزرار الخضراء مع رمز الصليب الأسود للتكبير. على الزر الأخضر مع شرطة للتصغير، أو على الأسهم الخضراء للخرائط المجاورة.


METAR-TAF: